Time;durP1;ratioP1;P1;durP2;ratioP2;P2;SDS_P1;SDS_P2;PMS_P1;PMS_P2;Temp;Humidity;BMP_temperature;BMP_pressure;BME280_temperature;BME280_humidity;BME280_pressure;Samples;Min_cycle;Max_cycle;Signal;HPM_P1;HPM_P2
2022/11/06 00:01:24;;;;;;;6.80;3.67;;;8.30;99.90;;;;;;5029039;28;20049;-70
2022/11/06 00:03:53;;;;;;;7.93;2.92;;;8.40;99.90;;;;;;5011678;28;20074;-70
2022/11/06 00:09:07;;;;;;;9.90;3.25;;;8.40;99.90;;;;;;5011188;28;20104;-70
2022/11/06 00:11:33;;;;;;;5.15;2.88;;;8.40;99.90;;;;;;5013085;28;20046;-70
2022/11/06 00:13:59;;;;;;;9.70;3.33;;;8.50;99.90;;;;;;5012170;28;20076;-70
2022/11/06 00:16:25;;;;;;;8.93;3.47;;;8.40;99.90;;;;;;5028328;28;20038;-70
2022/11/06 00:18:51;;;;;;;6.93;3.10;;;8.40;99.90;;;;;;5027191;28;20380;-70
2022/11/06 00:21:19;;;;;;;7.72;3.17;;;8.40;99.90;;;;;;5011458;28;20043;-70
2022/11/06 00:23:45;;;;;;;7.35;2.90;;;8.40;99.90;;;;;;5011659;28;20467;-71
2022/11/06 00:26:18;;;;;;;8.23;3.33;;;8.40;99.90;;;;;;5000369;28;20038;-70
2022/11/06 00:28:47;;;;;;;8.25;3.40;;;8.50;99.90;;;;;;4996477;28;20050;-68
2022/11/06 00:31:13;;;;;;;;;;;8.40;99.90;;;;;;5029829;28;20042;-69
2022/11/06 00:33:39;;;;;;;7.88;3.10;;;8.50;99.90;;;;;;5026967;28;20274;-68
2022/11/06 00:36:06;;;;;;;9.23;4.15;;;8.50;99.90;;;;;;5008402;28;20129;-70
2022/11/06 00:38:32;;;;;;;17.98;8.02;;;8.40;99.90;;;;;;5011952;28;20046;-69
2022/11/06 00:41:06;;;;;;;11.13;5.97;;;8.40;99.90;;;;;;5012372;28;20442;-69
2022/11/06 00:43:32;;;;;;;6.15;2.90;;;8.40;99.90;;;;;;5011083;28;20471;-69
2022/11/06 00:46:10;;;;;;;9.27;3.67;;;8.40;99.90;;;;;;5022950;28;20053;-69
2022/11/06 00:48:36;;;;;;;5.25;3.13;;;8.40;99.90;;;;;;5007224;28;20062;-69
2022/11/06 00:51:12;;;;;;;6.55;3.00;;;8.40;99.90;;;;;;5025907;28;20058;-69
2022/11/06 00:53:38;;;;;;;6.65;3.45;;;8.40;99.90;;;;;;5038822;28;20049;-69
2022/11/06 00:56:10;;;;;;;8.75;3.40;;;8.40;99.90;;;;;;5010665;28;20052;-69
2022/11/06 00:58:36;;;;;;;4.50;2.70;;;8.40;99.90;;;;;;5026161;28;20408;-69
2022/11/06 01:01:15;;;;;;;7.28;2.97;;;8.40;99.90;;;;;;5010995;28;20045;-69
2022/11/06 01:03:42;;;;;;;8.38;3.35;;;8.30;99.90;;;;;;5027623;28;20053;-69
2022/11/06 01:06:13;;;;;;;7.35;3.13;;;8.30;99.90;;;;;;5011004;28;20054;-69
2022/11/06 01:08:39;;;;;;;13.35;3.45;;;8.30;99.90;;;;;;5025216;28;20042;-68
2022/11/06 01:11:16;;;;;;;5.85;2.78;;;8.30;99.90;;;;;;5025580;28;20100;-68
2022/11/06 01:13:41;;;;;;;15.52;4.90;;;8.30;99.90;;;;;;5026074;28;20412;-69
2022/11/06 01:16:08;;;;;;;11.15;3.20;;;8.30;99.90;;;;;;5011225;28;20056;-70
2022/11/06 01:18:39;;;;;;;7.38;3.13;;;8.20;99.90;;;;;;5010518;28;20054;-69
2022/11/06 01:21:10;;;;;;;5.80;2.95;;;8.30;99.90;;;;;;5021680;28;20056;-69
2022/11/06 01:23:35;;;;;;;5.68;2.97;;;8.30;99.90;;;;;;4988443;28;20049;-70
2022/11/06 01:26:03;;;;;;;6.32;3.30;;;8.30;99.90;;;;;;5026779;28;20061;-69
2022/11/06 01:28:28;;;;;;;4.88;2.80;;;8.20;99.90;;;;;;5023065;28;20062;-69
2022/11/06 01:30:54;;;;;;;4.85;2.90;;;8.20;99.90;;;;;;4992056;28;20042;-68
2022/11/06 01:33:20;;;;;;;6.50;3.08;;;8.20;99.90;;;;;;5004127;28;20050;-69
2022/11/06 01:35:48;;;;;;;9.13;3.42;;;8.20;99.90;;;;;;5009378;28;20130;-70
2022/11/06 01:38:14;;;;;;;6.45;2.78;;;8.20;99.90;;;;;;5022107;28;20494;-70
2022/11/06 01:40:44;;;;;;;7.70;3.00;;;8.10;99.90;;;;;;5021614;28;20211;-69
2022/11/06 01:43:17;;;;;;;5.88;2.95;;;8.20;99.90;;;;;;5009723;28;20042;-69
2022/11/06 01:45:44;;;;;;;8.00;3.50;;;8.10;99.90;;;;;;5008907;28;20042;-70
2022/11/06 01:48:10;;;;;;;6.00;3.13;;;8.10;99.90;;;;;;5008702;28;20100;-69
2022/11/06 01:50:36;;;;;;;10.40;3.00;;;8.20;99.90;;;;;;4993753;28;20042;-69
2022/11/06 01:53:02;;;;;;;5.88;3.25;;;8.20;99.90;;;;;;4993188;28;20049;-69
2022/11/06 01:55:31;;;;;;;9.18;4.00;;;8.20;99.90;;;;;;5026718;28;20341;-69
2022/11/06 01:57:59;;;;;;;9.15;3.47;;;8.20;99.90;;;;;;5026356;28;20479;-68
2022/11/06 02:00:26;;;;;;;9.27;3.38;;;8.20;99.90;;;;;;5027339;28;20045;-69
2022/11/06 02:02:52;;;;;;;7.15;3.17;;;8.20;99.90;;;;;;5004531;28;20060;-69
2022/11/06 02:05:18;;;;;;;9.20;4.10;;;8.20;99.90;;;;;;5010552;28;20045;-69
2022/11/06 02:07:43;;;;;;;6.70;3.20;;;8.20;99.90;;;;;;5010642;28;20084;-68
2022/11/06 02:10:09;;;;;;;8.27;3.50;;;8.20;99.90;;;;;;5009756;28;20081;-69
2022/11/06 02:12:50;;;;;;;7.93;4.10;;;8.20;99.90;;;;;;5017751;28;20133;-69
2022/11/06 02:15:25;;;;;;;9.93;3.38;;;8.20;99.90;;;;;;5009103;28;20088;-69
2022/11/06 02:18:40;;;;;;;9.90;3.38;;;8.20;99.90;;;;;;5010152;28;20050;-69
2022/11/06 02:21:34;;;;;;;6.75;3.65;;;8.30;99.90;;;;;;5008556;28;20372;-69
2022/11/06 02:24:32;;;;;;;8.68;4.20;;;8.30;99.90;;;;;;4990905;28;20103;-69
2022/11/06 02:26:58;;;;;;;7.53;3.78;;;8.30;99.90;;;;;;5007903;28;20088;-70
2022/11/06 02:29:49;;;;;;;12.35;4.28;;;8.20;99.90;;;;;;5007576;28;20084;-70
2022/11/06 02:32:24;;;;;;;9.55;3.50;;;8.20;99.90;;;;;;5004737;28;20531;-69
2022/11/06 02:34:51;;;;;;;5.82;3.35;;;8.30;99.90;;;;;;5004625;28;20077;-69
2022/11/06 02:37:19;;;;;;;8.80;3.83;;;8.30;99.90;;;;;;4992739;28;20081;-70
2022/11/06 02:39:45;;;;;;;7.15;3.58;;;8.30;99.90;;;;;;5017275;28;20049;-69
2022/11/06 02:42:11;;;;;;;8.50;3.60;;;8.20;99.90;;;;;;5024394;28;20042;-70
2022/11/06 02:44:37;;;;;;;6.30;3.45;;;8.30;99.90;;;;;;5013652;28;20053;-70
2022/11/06 02:47:08;;;;;;;7.47;3.50;;;8.20;99.90;;;;;;5007668;28;20038;-70
2022/11/06 02:50:02;;;;;;;9.57;3.53;;;8.30;99.90;;;;;;5022134;28;20050;-69
2022/11/06 02:52:39;;;;;;;7.85;3.50;;;8.30;99.90;;;;;;5004509;28;20049;-70
2022/11/06 02:55:12;;;;;;;11.57;4.28;;;8.30;99.90;;;;;;5009912;28;20050;-70
2022/11/06 02:57:38;;;;;;;7.22;3.70;;;8.30;99.90;;;;;;5006987;28;20172;-69
2022/11/06 03:00:12;;;;;;;6.93;3.85;;;8.40;99.90;;;;;;5010016;28;20057;-70
2022/11/06 03:02:46;;;;;;;7.88;3.65;;;8.30;99.90;;;;;;5025242;28;20136;-69
2022/11/06 03:05:13;;;;;;;7.95;3.88;;;8.30;99.90;;;;;;5023422;28;20050;-69
2022/11/06 03:07:52;;;;;;;8.50;4.13;;;8.40;99.90;;;;;;5009645;28;20049;-69
2022/11/06 03:10:18;;;;;;;7.05;3.90;;;8.40;99.90;;;;;;5010359;28;20045;-69
2022/11/06 03:12:54;;;;;;;8.40;4.30;;;8.30;99.90;;;;;;5021962;28;20141;-69
2022/11/06 03:15:42;;;;;;;11.10;4.30;;;8.40;99.90;;;;;;5008467;28;20088;-69
2022/11/06 03:18:26;;;;;;;10.03;4.53;;;8.40;99.90;;;;;;5027930;28;20045;-69
2022/11/06 03:21:06;;;;;;;9.18;4.70;;;8.50;99.90;;;;;;5027595;28;20824;-70
2022/11/06 03:23:32;;;;;;;11.55;4.05;;;8.40;99.90;;;;;;5023329;28;20061;-69
2022/11/06 03:26:26;;;;;;;10.82;4.68;;;8.50;99.90;;;;;;5010902;28;20042;-68
2022/11/06 03:29:01;;;;;;;7.10;4.10;;;8.50;99.90;;;;;;5019835;28;20116;-70
2022/11/06 03:31:36;;;;;;;13.05;4.40;;;8.50;99.90;;;;;;5009965;28;20049;-69
2022/11/06 03:34:08;;;;;;;10.52;4.22;;;8.50;99.90;;;;;;4997066;28;20050;-69
2022/11/06 03:36:35;;;;;;;9.00;4.43;;;8.50;99.90;;;;;;5014021;28;20538;-70
2022/11/06 03:39:04;;;;;;;10.32;5.07;;;8.50;99.90;;;;;;5013018;28;20050;-69
2022/11/06 03:41:40;;;;;;;6.97;4.25;;;8.50;99.90;;;;;;5013270;28;20045;-70
2022/11/06 03:44:07;;;;;;;11.40;4.70;;;8.50;99.90;;;;;;5009375;28;20042;-69
2022/11/06 03:46:32;;;;;;;9.50;4.50;;;8.50;99.90;;;;;;5010075;28;20045;-67
2022/11/06 03:49:04;;;;;;;9.50;4.70;;;8.50;99.90;;;;;;5006225;28;20041;-68
2022/11/06 03:51:33;;;;;;;9.90;3.90;;;8.60;99.90;;;;;;5011522;28;20046;-69
2022/11/06 03:54:04;;;;;;;8.85;4.60;;;8.60;99.90;;;;;;5030892;28;20053;-67
2022/11/06 03:56:56;;;;;;;11.75;4.18;;;8.60;99.90;;;;;;5011574;28;20057;-69
2022/11/06 03:59:24;;;;;;;8.13;4.53;;;8.50;99.90;;;;;;5012483;28;20045;-69
2022/11/06 04:01:49;;;;;;;9.02;4.72;;;8.50;99.90;;;;;;5025293;28;20050;-69
2022/11/06 04:04:30;;;;;;;8.63;4.43;;;8.60;99.90;;;;;;5027775;28;20061;-69
2022/11/06 04:06:59;;;;;;;12.55;4.43;;;8.50;99.90;;;;;;4996676;28;20106;-70
2022/11/06 04:14:55;;;;;;;8.57;4.22;;;8.50;99.90;;;;;;4996330;28;20153;-69
2022/11/06 04:17:21;;;;;;;8.30;4.53;;;8.50;99.90;;;;;;5025451;28;20050;-69
2022/11/06 04:19:52;;;;;;;8.88;3.90;;;8.60;99.90;;;;;;5007417;28;20068;-69
2022/11/06 04:22:36;;;;;;;16.13;5.00;;;8.60;99.90;;;;;;5012190;28;20046;-70
2022/11/06 04:28:17;;;;;;;8.93;4.15;;;8.50;99.90;;;;;;4995217;28;20053;-68
2022/11/06 04:31:01;;;;;;;9.10;4.80;;;8.60;99.90;;;;;;5019533;28;20046;-69
2022/11/06 04:33:48;;;;;;;9.05;3.70;;;8.60;99.90;;;;;;5011921;28;20060;-69
2022/11/06 04:36:40;;;;;;;9.70;4.70;;;8.60;99.90;;;;;;5011373;28;20108;-69
2022/11/06 04:39:13;;;;;;;6.63;3.83;;;8.50;99.90;;;;;;5022231;28;20324;-69
2022/11/06 04:42:02;;;;;;;6.50;3.75;;;8.50;99.90;;;;;;5012117;28;20077;-69
2022/11/06 04:44:40;;;;;;;6.93;4.00;;;8.50;99.90;;;;;;5000436;28;20050;-69
2022/11/06 04:47:08;;;;;;;8.55;4.10;;;8.50;99.90;;;;;;4977323;28;20100;-69
2022/11/06 04:49:35;;;;;;;11.30;3.53;;;8.50;99.90;;;;;;5016508;28;20041;-70
2022/11/06 04:52:06;;;;;;;11.83;4.63;;;8.40;99.90;;;;;;5028817;28;20052;-69
2022/11/06 04:54:32;;;;;;;7.85;3.67;;;8.50;99.90;;;;;;5025319;28;20039;-70
2022/11/06 04:56:59;;;;;;;11.00;4.25;;;8.50;99.90;;;;;;5044671;28;20052;-69
2022/11/06 04:59:25;;;;;;;11.27;4.72;;;8.40;99.90;;;;;;5007611;28;20045;-69
2022/11/06 05:01:51;;;;;;;8.40;4.30;;;8.40;99.90;;;;;;5018248;28;20105;-68
2022/11/06 05:04:17;;;;;;;12.15;4.72;;;8.40;99.90;;;;;;4995193;28;20067;-69
2022/11/06 05:06:42;;;;;;;6.63;4.20;;;8.40;99.90;;;;;;5027124;28;20045;-69
2022/11/06 05:09:08;;;;;;;8.77;4.53;;;8.40;99.90;;;;;;5028420;28;20045;-70
2022/11/06 05:11:34;;;;;;;9.98;4.50;;;8.40;99.90;;;;;;5027321;28;20054;-69
2022/11/06 05:14:00;;;;;;;9.18;4.05;;;8.40;99.90;;;;;;5021556;28;20046;-70
2022/11/06 05:16:25;;;;;;;14.05;4.63;;;8.40;99.90;;;;;;5010885;28;20045;-69
2022/11/06 05:18:51;;;;;;;7.72;4.03;;;8.40;99.90;;;;;;5011751;28;20053;-69
2022/11/06 05:24:01;;;;;;;7.65;3.92;;;8.40;99.90;;;;;;5011730;28;20087;-68
2022/11/06 05:26:27;;;;;;;11.88;3.85;;;8.40;99.90;;;;;;5024977;28;20527;-69
2022/11/06 05:28:53;;;;;;;7.32;3.75;;;8.30;99.90;;;;;;5026375;28;20124;-68
2022/11/06 05:31:19;;;;;;;9.75;3.92;;;8.30;99.90;;;;;;5011285;28;20042;-69
2022/11/06 05:33:44;;;;;;;8.40;4.13;;;8.40;99.90;;;;;;5043914;28;20056;-69
2022/11/06 05:36:10;;;;;;;9.55;3.70;;;8.30;99.90;;;;;;5011235;28;20120;-67
2022/11/06 05:38:36;;;;;;;8.75;4.13;;;8.40;99.90;;;;;;4990418;28;20050;-69
2022/11/06 05:41:01;;;;;;;9.02;4.07;;;8.40;99.90;;;;;;5025579;28;20491;-69
2022/11/06 05:43:27;;;;;;;9.02;4.10;;;8.30;99.90;;;;;;5010792;28;20045;-67
2022/11/06 05:45:53;;;;;;;8.65;4.22;;;8.30;99.90;;;;;;5023142;28;20549;-70
2022/11/06 05:48:19;;;;;;;9.50;4.18;;;8.30;99.90;;;;;;5025169;28;20160;-70
2022/11/06 05:50:44;;;;;;;10.27;4.20;;;8.30;99.90;;;;;;5010949;28;20049;-69
2022/11/06 05:53:10;;;;;;;12.48;3.65;;;8.30;99.90;;;;;;4993992;28;20049;-71
2022/11/06 05:55:36;;;;;;;11.75;4.65;;;8.30;99.90;;;;;;5006165;28;20054;-68
2022/11/06 05:58:02;;;;;;;8.98;3.80;;;8.30;99.90;;;;;;5042932;28;20070;-69
2022/11/06 06:00:27;;;;;;;6.85;3.90;;;8.30;99.90;;;;;;5025316;28;20065;-69
2022/11/06 06:02:53;;;;;;;11.38;4.43;;;8.30;99.90;;;;;;5010412;28;20073;-69
2022/11/06 06:05:19;;;;;;;8.15;4.00;;;8.30;99.90;;;;;;5009964;28;20078;-68
2022/11/06 06:07:44;;;;;;;10.45;4.50;;;8.30;99.90;;;;;;5007424;28;20042;-69
2022/11/06 06:10:10;;;;;;;10.95;4.47;;;8.30;99.90;;;;;;5023329;28;20054;-69
2022/11/06 06:12:38;;;;;;;8.88;4.20;;;8.30;99.90;;;;;;5007677;28;20107;-68
2022/11/06 06:15:04;;;;;;;11.73;4.53;;;8.30;99.90;;;;;;5003551;28;20053;-68
2022/11/06 06:17:30;;;;;;;9.00;3.83;;;8.30;99.90;;;;;;5023010;28;20301;-69
2022/11/06 06:19:56;;;;;;;6.97;4.30;;;8.30;99.90;;;;;;5023672;28;20049;-70
2022/11/06 06:22:21;;;;;;;11.93;4.00;;;8.30;99.90;;;;;;5010366;28;20787;-68
2022/11/06 06:24:47;;;;;;;9.63;4.10;;;8.30;99.90;;;;;;5009604;28;20038;-69
2022/11/06 06:27:13;;;;;;;13.15;4.55;;;8.30;99.90;;;;;;5002510;28;20740;-68
2022/11/06 06:29:39;;;;;;;7.80;3.97;;;8.30;99.90;;;;;;5025581;28;20064;-69
2022/11/06 06:32:05;;;;;;;10.25;4.20;;;8.30;99.90;;;;;;5015492;28;20778;-68
2022/11/06 06:34:30;;;;;;;11.02;3.90;;;8.30;99.90;;;;;;5010432;28;20583;-69
2022/11/06 06:36:56;;;;;;;10.70;4.38;;;8.30;99.90;;;;;;5009615;28;20724;-70
2022/11/06 06:39:22;;;;;;;10.93;4.15;;;8.30;99.90;;;;;;5010520;28;20080;-69
2022/11/06 06:41:48;;;;;;;10.65;3.88;;;8.30;99.90;;;;;;5010454;28;20464;-70
2022/11/06 06:44:14;;;;;;;8.95;3.60;;;8.40;99.90;;;;;;5018363;28;20474;-69
2022/11/06 06:46:39;;;;;;;13.52;4.47;;;8.40;99.90;;;;;;5025522;28;20076;-69
2022/11/06 06:49:05;;;;;;;11.68;4.60;;;8.40;99.90;;;;;;4991785;28;20077;-71
2022/11/06 06:51:31;;;;;;;7.85;3.78;;;8.50;99.90;;;;;;5015638;28;20562;-71
2022/11/06 06:53:57;;;;;;;10.15;4.68;;;8.50;99.90;;;;;;5009745;28;20140;-71
2022/11/06 06:56:22;;;;;;;12.93;4.82;;;8.50;99.90;;;;;;5022535;28;20538;-70
2022/11/06 06:58:48;;;;;;;9.07;3.88;;;8.50;99.90;;;;;;4992280;28;20060;-69
2022/11/06 07:01:14;;;;;;;9.77;3.75;;;8.50;99.90;;;;;;5008983;28;20069;-70
2022/11/06 07:03:40;;;;;;;8.95;3.58;;;8.60;99.90;;;;;;5008763;28;20111;-70
2022/11/06 07:06:06;;;;;;;10.18;4.30;;;8.60;99.90;;;;;;5008298;28;20065;-70
2022/11/06 07:08:32;;;;;;;10.85;4.10;;;8.60;99.90;;;;;;5006558;28;20046;-70
2022/11/06 07:10:59;;;;;;;13.05;4.90;;;8.70;99.90;;;;;;5017317;28;20057;-69
2022/11/06 07:13:25;;;;;;;11.10;4.07;;;8.70;99.90;;;;;;5008100;28;20081;-69
2022/11/06 07:15:50;;;;;;;11.82;3.72;;;8.70;99.90;;;;;;5010357;28;20077;-72
2022/11/06 07:18:16;;;;;;;7.85;3.35;;;8.70;99.90;;;;;;5026127;28;20399;-70
2022/11/06 07:20:42;;;;;;;9.10;3.58;;;8.70;99.90;;;;;;5009628;28;20653;-69
2022/11/06 07:23:08;;;;;;;8.60;4.25;;;8.70;99.90;;;;;;4989958;28;20050;-69
2022/11/06 07:25:34;;;;;;;10.32;3.75;;;8.80;99.90;;;;;;5024413;28;20049;-70
2022/11/06 07:28:01;;;;;;;12.63;4.30;;;8.80;99.90;;;;;;4989137;28;20058;-70
2022/11/06 07:30:27;;;;;;;8.05;3.92;;;8.70;99.90;;;;;;5023925;28;20056;-70
2022/11/06 07:32:53;;;;;;;9.93;4.80;;;8.70;99.90;;;;;;5025802;28;20054;-69
2022/11/06 07:35:19;;;;;;;15.18;4.40;;;8.70;99.90;;;;;;5026334;28;20435;-69
2022/11/06 07:37:44;;;;;;;8.40;3.15;;;8.70;99.90;;;;;;5009865;28;20125;-69
2022/11/06 07:40:10;;;;;;;12.55;3.95;;;8.70;99.90;;;;;;5023730;28;20480;-70
2022/11/06 07:42:36;;;;;;;8.70;3.92;;;8.70;99.90;;;;;;5026441;28;20046;-69
2022/11/06 07:45:02;;;;;;;12.10;4.00;;;8.70;99.90;;;;;;4992132;28;20050;-71
2022/11/06 07:47:30;;;;;;;12.75;4.85;;;8.70;99.90;;;;;;5006245;28;20423;-72
2022/11/06 07:49:56;;;;;;;10.10;3.80;;;8.70;99.90;;;;;;5009531;28;20120;-71
2022/11/06 07:52:22;;;;;;;13.43;3.97;;;8.70;99.90;;;;;;5008785;28;20136;-71
2022/11/06 07:54:49;;;;;;;8.88;3.40;;;8.70;99.90;;;;;;4992058;28;20064;-72
2022/11/06 07:57:15;;;;;;;12.80;3.30;;;8.70;99.90;;;;;;5024220;28;20054;-71
2022/11/06 07:59:41;;;;;;;9.13;3.42;;;8.60;99.90;;;;;;5022558;28;20109;-71
2022/11/06 08:02:10;;;;;;;10.55;3.63;;;8.70;99.90;;;;;;5023873;28;20043;-72
2022/11/06 08:04:36;;;;;;;9.15;3.38;;;8.70;99.90;;;;;;4993530;28;20058;-71
2022/11/06 08:07:02;;;;;;;6.32;3.30;;;8.70;99.90;;;;;;5025362;28;20050;-71
2022/11/06 08:09:27;;;;;;;9.13;3.53;;;8.70;99.90;;;;;;5042017;28;20499;-71
2022/11/06 08:11:53;;;;;;;10.15;3.50;;;8.70;99.90;;;;;;5009598;28;20463;-71
2022/11/06 08:14:19;;;;;;;8.45;3.33;;;8.70;99.90;;;;;;4993400;28;20117;-72
2022/11/06 08:16:44;;;;;;;9.93;4.28;;;8.80;99.90;;;;;;5007310;28;20145;-71
2022/11/06 08:19:10;;;;;;;7.30;3.60;;;8.80;99.90;;;;;;5027707;28;20136;-71
2022/11/06 08:21:36;;;;;;;9.02;3.47;;;8.80;99.90;;;;;;5011203;28;20053;-71
2022/11/06 08:24:02;;;;;;;11.23;4.20;;;8.90;99.90;;;;;;5012970;28;20064;-72
2022/11/06 08:26:28;;;;;;;10.60;3.45;;;9.00;99.90;;;;;;5029460;28;20084;-71
2022/11/06 08:28:54;;;;;;;7.65;3.20;;;9.00;99.90;;;;;;5012042;28;20077;-71
2022/11/06 08:31:19;;;;;;;8.45;3.30;;;9.10;99.90;;;;;;5012407;28;20078;-70
2022/11/06 08:33:45;;;;;;;10.75;3.70;;;9.10;99.90;;;;;;5011890;28;20046;-72
2022/11/06 08:36:11;;;;;;;13.32;3.78;;;9.10;99.90;;;;;;5012209;28;20275;-71
2022/11/06 08:38:37;;;;;;;8.90;3.47;;;9.20;99.90;;;;;;5027727;28;20148;-71
2022/11/06 08:41:07;;;;;;;7.80;3.42;;;9.20;99.90;;;;;;5023075;28;20050;-71
2022/11/06 08:43:33;;;;;;;8.73;3.47;;;9.20;99.90;;;;;;5012364;28;20122;-71
2022/11/06 08:45:59;;;;;;;6.93;2.80;;;9.20;99.90;;;;;;5006953;28;20691;-72
2022/11/06 08:48:24;;;;;;;7.10;3.58;;;9.30;99.90;;;;;;5028476;28;20058;-71
2022/11/06 08:50:50;;;;;;;6.38;2.90;;;9.30;99.90;;;;;;5028092;28;20042;-71
2022/11/06 08:53:16;;;;;;;8.25;2.90;;;9.30;99.90;;;;;;5011917;28;20050;-71
2022/11/06 08:55:41;;;;;;;7.15;2.50;;;9.40;99.90;;;;;;5013118;28;20132;-71
2022/11/06 08:58:07;;;;;;;7.18;2.95;;;9.40;99.90;;;;;;5026902;28;20193;-71
2022/11/06 09:00:33;;;;;;;9.32;3.17;;;9.50;99.90;;;;;;5012709;28;20056;-71
2022/11/06 09:03:00;;;;;;;5.53;2.75;;;9.60;99.90;;;;;;5010393;28;20107;-71
2022/11/06 09:05:26;;;;;;;8.52;2.53;;;9.70;99.90;;;;;;5026272;28;20046;-71
2022/11/06 09:07:52;;;;;;;5.53;2.33;;;9.70;99.90;;;;;;4994745;28;20045;-70
2022/11/06 09:10:18;;;;;;;10.02;2.92;;;9.80;99.90;;;;;;5011458;28;20053;-71
2022/11/06 09:12:44;;;;;;;9.55;2.40;;;9.90;99.90;;;;;;5026882;28;20041;-71
2022/11/06 09:15:10;;;;;;;4.55;2.97;;;10.00;99.90;;;;;;4993490;28;20494;-71
2022/11/06 09:18:02;;;;;;;5.97;2.67;;;10.30;99.90;;;;;;5011590;28;20554;-71
2022/11/06 09:20:28;;;;;;;6.07;2.50;;;10.30;99.90;;;;;;5043699;28;20104;-72
2022/11/06 09:22:54;;;;;;;7.53;2.72;;;10.40;99.90;;;;;;5010746;28;20050;-72
2022/11/06 09:25:20;;;;;;;6.38;2.70;;;10.60;99.90;;;;;;5025108;28;20042;-71
2022/11/06 09:27:51;;;;;;;11.52;2.83;;;10.80;99.90;;;;;;5027873;28;20046;-71
2022/11/06 09:30:18;;;;;;;9.05;2.63;;;10.70;99.90;;;;;;5024359;28;20045;-71
2022/11/06 09:32:48;;;;;;;6.10;2.15;;;10.70;99.90;;;;;;5011660;28;20077;-71
2022/11/06 09:35:14;;;;;;;4.55;2.20;;;10.70;99.90;;;;;;5011186;28;20046;-71
2022/11/06 09:37:40;;;;;;;8.57;2.40;;;10.90;99.90;;;;;;5026443;28;20050;-69
2022/11/06 09:40:07;;;;;;;8.20;2.80;;;11.10;99.90;;;;;;5011197;28;20074;-69
2022/11/06 09:42:44;;;;;;;10.35;3.60;;;11.10;99.90;;;;;;5030944;28;20053;-69
2022/11/06 09:45:21;;;;;;;5.13;2.67;;;11.20;99.90;;;;;;5025734;28;20054;-69
2022/11/06 09:47:53;;;;;;;6.80;2.53;;;11.30;99.90;;;;;;5010951;28;20050;-69
2022/11/06 09:50:24;;;;;;;6.70;2.67;;;11.50;99.90;;;;;;4995988;28;20134;-69
2022/11/06 09:53:18;;;;;;;5.57;2.20;;;11.70;99.90;;;;;;5010095;28;20484;-68
2022/11/06 09:55:44;;;;;;;3.90;2.03;;;11.90;99.90;;;;;;5008412;28;20078;-68
2022/11/06 09:58:20;;;;;;;7.03;2.35;;;11.90;99.40;;;;;;5011096;28;20127;-69
2022/11/06 10:00:45;;;;;;;4.35;1.70;;;11.90;99.00;;;;;;5026821;28;20415;-68
2022/11/06 10:03:29;;;;;;;6.50;2.33;;;11.90;99.20;;;;;;5025937;28;20342;-69
2022/11/06 10:05:55;;;;;;;6.13;2.00;;;12.20;99.30;;;;;;5023062;28;20052;-69
2022/11/06 10:08:22;;;;;;;6.63;1.83;;;12.50;98.50;;;;;;5009155;28;20153;-69
2022/11/06 10:10:54;;;;;;;7.35;2.08;;;12.60;97.90;;;;;;5010486;28;20099;-68
2022/11/06 10:13:32;;;;;;;5.65;2.03;;;12.80;98.50;;;;;;5025349;28;20056;-69
2022/11/06 10:16:22;;;;;;;8.10;1.95;;;12.70;96.80;;;;;;5011527;28;20111;-69
2022/11/06 10:18:59;;;;;;;4.72;1.83;;;12.70;96.90;;;;;;5011106;28;20045;-69
2022/11/06 10:21:33;;;;;;;4.82;1.80;;;13.00;96.90;;;;;;5004939;28;20045;-69
2022/11/06 10:23:59;;;;;;;4.20;2.03;;;13.00;97.10;;;;;;5010465;28;20482;-69
2022/11/06 10:26:35;;;;;;;5.43;1.85;;;13.10;96.30;;;;;;5003817;28;20053;-69
2022/11/06 10:29:23;;;;;;;5.88;1.80;;;13.20;96.40;;;;;;5010567;28;20119;-70
2022/11/06 10:31:52;;;;;;;6.30;1.90;;;13.30;95.50;;;;;;5019529;28;20561;-70
2022/11/06 10:34:31;;;;;;;5.57;1.88;;;13.60;95.80;;;;;;5010761;28;20045;-69
2022/11/06 10:37:01;;;;;;;4.63;1.90;;;13.70;94.10;;;;;;5024047;28;20504;-69
2022/11/06 10:39:33;;;;;;;3.92;1.60;;;14.40;94.70;;;;;;5022848;28;20076;-70
2022/11/06 10:42:19;;;;;;;6.90;2.10;;;14.60;93.60;;;;;;5025143;28;20045;-70
2022/11/06 10:44:48;;;;;;;5.35;1.73;;;14.40;92.70;;;;;;5009658;28;20046;-69
2022/11/06 10:47:22;;;;;;;4.20;1.73;;;14.80;92.00;;;;;;5009076;28;20486;-70
2022/11/06 10:49:53;;;;;;;4.75;1.63;;;15.00;91.80;;;;;;5026295;28;20057;-70
2022/11/06 10:52:33;;;;;;;4.80;1.40;;;15.40;91.00;;;;;;4990145;28;20078;-70
2022/11/06 10:55:27;;;;;;;5.43;1.67;;;15.80;90.20;;;;;;5005566;28;20128;-72
2022/11/06 10:58:25;;;;;;;5.18;1.60;;;15.60;88.90;;;;;;5008881;28;20383;-71
2022/11/06 11:00:57;;;;;;;3.95;1.73;;;15.90;89.30;;;;;;5003611;28;20049;-70
2022/11/06 11:03:34;;;;;;;4.35;1.67;;;16.00;87.90;;;;;;5024477;28;20057;-69
2022/11/06 11:06:00;;;;;;;3.92;1.42;;;16.00;87.20;;;;;;5022471;28;20054;-70
2022/11/06 11:08:43;;;;;;;4.30;1.50;;;16.20;86.40;;;;;;5023028;28;20046;-71
2022/11/06 11:11:20;;;;;;;5.35;1.83;;;16.20;85.40;;;;;;5003584;28;20156;-71
2022/11/06 11:13:50;;;;;;;3.95;1.98;;;16.50;83.40;;;;;;5009749;28;20096;-71
2022/11/06 11:16:22;;;;;;;5.00;1.80;;;16.60;84.00;;;;;;5009943;28;20132;-70
2022/11/06 11:18:58;;;;;;;4.13;1.60;;;16.50;82.20;;;;;;5008404;28;20120;-71
2022/11/06 11:21:29;;;;;;;;;;;16.60;83.00;;;;;;4992988;28;20074;-70
2022/11/06 11:24:13;;;;;;;3.60;1.58;;;16.50;81.40;;;;;;4991407;28;20013;-70
2022/11/06 11:26:43;;;;;;;5.00;1.52;;;15.80;81.90;;;;;;5021979;28;20049;-70
2022/11/06 11:29:16;;;;;;;3.55;1.73;;;16.00;81.80;;;;;;5006061;28;20069;-70
2022/11/06 11:31:53;;;;;;;3.95;1.27;;;16.60;80.70;;;;;;4978755;28;20132;-71
2022/11/06 11:34:29;;;;;;;5.13;1.27;;;16.60;79.00;;;;;;5007710;28;20046;-70
2022/11/06 11:37:04;;;;;;;3.92;1.60;;;16.10;81.40;;;;;;4998523;28;20372;-70
2022/11/06 11:39:31;;;;;;;4.50;1.42;;;15.90;81.00;;;;;;5009315;28;20038;-71
2022/11/06 11:42:31;;;;;;;3.80;1.38;;;16.30;79.50;;;;;;5024994;28;20046;-72
2022/11/06 11:45:10;;;;;;;5.32;1.48;;;16.30;79.40;;;;;;5013609;28;20506;-72
2022/11/06 11:47:37;;;;;;;4.82;1.40;;;16.50;78.20;;;;;;5036879;28;20049;-72
2022/11/06 11:50:32;;;;;;;4.68;1.42;;;16.50;77.60;;;;;;5020352;28;20046;-72
2022/11/06 11:53:19;;;;;;;4.00;1.60;;;16.70;77.00;;;;;;5023574;28;20056;-71
2022/11/06 11:55:48;;;;;;;4.88;1.48;;;16.50;75.70;;;;;;5023237;28;20057;-72
2022/11/06 11:58:26;;;;;;;4.90;1.40;;;16.30;78.20;;;;;;5025636;28;20133;-73
2022/11/06 12:01:11;;;;;;;4.63;1.52;;;16.80;75.80;;;;;;5013368;28;20046;-73
2022/11/06 12:03:42;;;;;;;3.70;1.63;;;17.20;76.50;;;;;;4996887;28;20046;-72
2022/11/06 12:06:16;;;;;;;4.53;1.42;;;16.60;77.30;;;;;;5026135;28;20049;-73
2022/11/06 12:08:48;;;;;;;5.93;1.65;;;16.90;76.80;;;;;;5010241;28;20487;-72
2022/11/06 12:11:27;;;;;;;5.53;1.40;;;17.10;75.40;;;;;;4979363;28;20124;-73
2022/11/06 12:14:21;;;;;;;5.53;1.45;;;17.60;74.30;;;;;;5024154;28;20061;-74
2022/11/06 12:16:50;;;;;;;3.97;1.40;;;17.90;71.30;;;;;;5028848;28;20053;-73
2022/11/06 12:19:26;;;;;;;8.20;1.95;;;18.10;70.80;;;;;;5025394;28;20046;-73
2022/11/06 12:21:55;;;;;;;4.07;1.70;;;17.80;71.20;;;;;;4992793;28;20061;-73
2022/11/06 12:24:26;;;;;;;7.45;1.52;;;18.40;70.40;;;;;;5010905;28;20053;-74
2022/11/06 12:27:23;;;;;;;4.25;1.35;;;18.30;69.80;;;;;;4995828;28;20049;-74
2022/11/06 12:30:25;;;;;;;7.05;1.90;;;18.10;70.90;;;;;;4995279;28;20061;-75
2022/11/06 12:33:00;;;;;;;4.85;1.60;;;17.80;70.60;;;;;;5009281;28;20046;-72
2022/11/06 12:35:42;;;;;;;6.85;1.63;;;17.80;73.60;;;;;;5028151;28;20046;-73
2022/11/06 12:38:32;;;;;;;5.50;1.30;;;17.90;71.60;;;;;;5010952;28;20046;-74
2022/11/06 12:41:02;;;;;;;4.43;1.60;;;17.80;71.00;;;;;;5011997;28;20661;-73
2022/11/06 12:43:46;;;;;;;10.68;2.05;;;17.50;70.60;;;;;;5007848;28;20057;-74
2022/11/06 12:46:24;;;;;;;5.70;1.60;;;17.30;71.30;;;;;;5011998;28;20050;-73
2022/11/06 12:49:28;;;;;;;5.60;1.65;;;17.50;71.20;;;;;;5011002;28;20042;-74
2022/11/06 12:52:47;;;;;;;5.90;1.40;;;17.40;72.00;;;;;;5027984;28;20115;-73
2022/11/06 12:55:22;;;;;;;6.15;1.45;;;16.90;72.60;;;;;;4974127;28;20046;-75
2022/11/06 12:58:08;;;;;;;4.88;1.70;;;17.10;73.30;;;;;;5012059;28;20045;-73
2022/11/06 13:01:16;;;;;;;5.90;2.10;;;17.10;72.90;;;;;;5027791;28;20440;-72
2022/11/06 13:04:00;;;;;;;3.50;1.35;;;17.00;70.80;;;;;;5008610;28;20815;-72
2022/11/06 13:06:48;;;;;;;6.22;2.60;;;16.80;72.40;;;;;;5004271;28;20037;-73
2022/11/06 13:09:45;;;;;;;6.13;1.58;;;16.70;71.40;;;;;;5006725;28;20057;-73
2022/11/06 13:12:36;;;;;;;3.93;1.70;;;16.10;72.70;;;;;;5012042;28;20531;-73
2022/11/06 13:15:33;;;;;;;5.15;1.38;;;16.10;72.80;;;;;;5013896;28;20284;-73
2022/11/06 13:18:14;;;;;;;6.47;1.92;;;16.30;73.10;;;;;;5004132;28;20073;-74
2022/11/06 13:20:45;;;;;;;4.68;1.33;;;16.30;74.30;;;;;;5029957;28;20057;-73
2022/11/06 13:23:29;;;;;;;5.15;2.10;;;16.30;73.50;;;;;;4993739;28;20080;-73
2022/11/06 13:26:19;;;;;;;9.30;1.60;;;16.40;73.90;;;;;;5008173;28;20160;-73
2022/11/06 13:28:54;;;;;;;3.83;1.75;;;16.50;73.60;;;;;;5011728;28;20449;-73
2022/11/06 13:31:20;;;;;;;6.07;1.33;;;16.30;74.60;;;;;;5026953;28;20038;-72